sensor_id;sensor_type;location;lat;lon;timestamp;P1;durP1;ratioP1;P2;durP2;ratioP2
13026;SDS011;6580;42.680;23.324;2022-12-29T00:00:04;24.80;;;19.97;;
13026;SDS011;6580;42.680;23.324;2022-12-29T00:02:32;24.60;;;19.70;;
13026;SDS011;6580;42.680;23.324;2022-12-29T00:05:00;28.50;;;23.17;;
13026;SDS011;6580;42.680;23.324;2022-12-29T00:07:28;28.83;;;23.63;;
13026;SDS011;6580;42.680;23.324;2022-12-29T00:09:55;28.10;;;23.63;;
13026;SDS011;6580;42.680;23.324;2022-12-29T00:12:22;31.17;;;23.80;;
13026;SDS011;6580;42.680;23.324;2022-12-29T00:14:49;33.80;;;25.53;;
13026;SDS011;6580;42.680;23.324;2022-12-29T00:17:33;32.33;;;25.77;;
13026;SDS011;6580;42.680;23.324;2022-12-29T00:20:02;32.40;;;25.43;;
13026;SDS011;6580;42.680;23.324;2022-12-29T00:22:47;34.40;;;26.43;;
13026;SDS011;6580;42.680;23.324;2022-12-29T00:25:31;35.63;;;29.03;;
13026;SDS011;6580;42.680;23.324;2022-12-29T00:28:15;33.07;;;27.10;;
13026;SDS011;6580;42.680;23.324;2022-12-29T00:31:00;33.23;;;26.53;;
13026;SDS011;6580;42.680;23.324;2022-12-29T00:33:46;37.63;;;26.43;;
13026;SDS011;6580;42.680;23.324;2022-12-29T00:36:32;33.17;;;25.10;;
13026;SDS011;6580;42.680;23.324;2022-12-29T00:39:04;30.93;;;24.93;;
13026;SDS011;6580;42.680;23.324;2022-12-29T00:41:52;29.87;;;25.43;;
13026;SDS011;6580;42.680;23.324;2022-12-29T00:44:37;31.77;;;24.73;;
13026;SDS011;6580;42.680;23.324;2022-12-29T00:47:05;30.80;;;24.33;;
13026;SDS011;6580;42.680;23.324;2022-12-29T00:49:33;30.73;;;24.93;;
13026;SDS011;6580;42.680;23.324;2022-12-29T00:52:03;28.87;;;22.80;;
13026;SDS011;6580;42.680;23.324;2022-12-29T00:54:33;27.03;;;21.43;;
13026;SDS011;6580;42.680;23.324;2022-12-29T00:57:01;26.60;;;21.93;;
13026;SDS011;6580;42.680;23.324;2022-12-29T00:59:29;25.73;;;22.03;;
13026;SDS011;6580;42.680;23.324;2022-12-29T01:01:56;24.73;;;20.37;;
13026;SDS011;6580;42.680;23.324;2022-12-29T01:04:25;24.70;;;19.70;;
13026;SDS011;6580;42.680;23.324;2022-12-29T01:06:52;24.23;;;19.97;;
13026;SDS011;6580;42.680;23.324;2022-12-29T01:09:23;26.87;;;21.13;;
13026;SDS011;6580;42.680;23.324;2022-12-29T01:12:08;25.23;;;19.30;;
13026;SDS011;6580;42.680;23.324;2022-12-29T01:14:37;26.30;;;19.83;;
13026;SDS011;6580;42.680;23.324;2022-12-29T01:17:13;25.03;;;19.63;;
13026;SDS011;6580;42.680;23.324;2022-12-29T01:19:40;25.50;;;19.03;;
13026;SDS011;6580;42.680;23.324;2022-12-29T01:22:12;25.53;;;18.70;;
13026;SDS011;6580;42.680;23.324;2022-12-29T01:24:40;23.97;;;18.67;;
13026;SDS011;6580;42.680;23.324;2022-12-29T01:27:07;23.47;;;18.90;;
13026;SDS011;6580;42.680;23.324;2022-12-29T01:29:37;22.97;;;19.03;;
13026;SDS011;6580;42.680;23.324;2022-12-29T01:32:10;24.77;;;18.03;;
13026;SDS011;6580;42.680;23.324;2022-12-29T01:34:37;27.43;;;18.97;;
13026;SDS011;6580;42.680;23.324;2022-12-29T01:37:07;23.90;;;18.27;;
13026;SDS011;6580;42.680;23.324;2022-12-29T01:39:34;22.87;;;18.53;;
13026;SDS011;6580;42.680;23.324;2022-12-29T01:42:08;22.67;;;18.00;;
13026;SDS011;6580;42.680;23.324;2022-12-29T01:44:54;21.93;;;18.33;;
13026;SDS011;6580;42.680;23.324;2022-12-29T01:47:25;23.23;;;18.03;;
13026;SDS011;6580;42.680;23.324;2022-12-29T01:49:57;24.43;;;18.40;;
13026;SDS011;6580;42.680;23.324;2022-12-29T01:52:31;23.77;;;18.47;;
13026;SDS011;6580;42.680;23.324;2022-12-29T01:55:02;22.97;;;18.53;;
13026;SDS011;6580;42.680;23.324;2022-12-29T01:57:32;23.67;;;18.43;;
13026;SDS011;6580;42.680;23.324;2022-12-29T02:00:07;21.97;;;17.40;;
13026;SDS011;6580;42.680;23.324;2022-12-29T02:02:36;25.23;;;19.40;;
13026;SDS011;6580;42.680;23.324;2022-12-29T02:05:05;21.60;;;17.03;;
13026;SDS011;6580;42.680;23.324;2022-12-29T02:07:36;18.50;;;16.20;;
13026;SDS011;6580;42.680;23.324;2022-12-29T02:10:05;20.00;;;16.20;;
13026;SDS011;6580;42.680;23.324;2022-12-29T02:12:35;21.30;;;16.33;;
13026;SDS011;6580;42.680;23.324;2022-12-29T02:15:10;25.13;;;16.47;;
13026;SDS011;6580;42.680;23.324;2022-12-29T02:20:56;19.13;;;16.97;;
13026;SDS011;6580;42.680;23.324;2022-12-29T02:27:29;21.13;;;17.10;;
13026;SDS011;6580;42.680;23.324;2022-12-29T02:30:28;23.60;;;17.47;;
13026;SDS011;6580;42.680;23.324;2022-12-29T02:33:05;20.57;;;16.97;;
13026;SDS011;6580;42.680;23.324;2022-12-29T02:35:44;18.23;;;15.30;;
13026;SDS011;6580;42.680;23.324;2022-12-29T02:38:19;18.83;;;15.73;;
13026;SDS011;6580;42.680;23.324;2022-12-29T02:40:56;18.50;;;14.80;;
13026;SDS011;6580;42.680;23.324;2022-12-29T02:43:33;19.23;;;16.03;;
13026;SDS011;6580;42.680;23.324;2022-12-29T02:46:09;17.33;;;14.73;;
13026;SDS011;6580;42.680;23.324;2022-12-29T02:48:42;21.50;;;16.63;;
13026;SDS011;6580;42.680;23.324;2022-12-29T02:51:14;19.47;;;15.70;;
13026;SDS011;6580;42.680;23.324;2022-12-29T02:53:44;18.23;;;15.50;;
13026;SDS011;6580;42.680;23.324;2022-12-29T02:56:32;18.00;;;15.17;;
13026;SDS011;6580;42.680;23.324;2022-12-29T02:59:00;18.00;;;15.43;;
13026;SDS011;6580;42.680;23.324;2022-12-29T03:01:33;18.60;;;15.83;;
13026;SDS011;6580;42.680;23.324;2022-12-29T03:04:30;18.30;;;15.27;;
13026;SDS011;6580;42.680;23.324;2022-12-29T03:07:07;20.13;;;15.37;;
13026;SDS011;6580;42.680;23.324;2022-12-29T03:09:41;19.03;;;16.00;;
13026;SDS011;6580;42.680;23.324;2022-12-29T03:12:14;19.00;;;16.03;;
13026;SDS011;6580;42.680;23.324;2022-12-29T03:15:13;20.37;;;15.63;;
13026;SDS011;6580;42.680;23.324;2022-12-29T03:18:07;19.03;;;16.27;;
13026;SDS011;6580;42.680;23.324;2022-12-29T03:20:41;20.37;;;16.77;;
13026;SDS011;6580;42.680;23.324;2022-12-29T03:23:15;18.03;;;15.30;;
13026;SDS011;6580;42.680;23.324;2022-12-29T03:25:43;18.93;;;15.80;;
13026;SDS011;6580;42.680;23.324;2022-12-29T03:28:15;20.97;;;15.77;;
13026;SDS011;6580;42.680;23.324;2022-12-29T03:30:47;21.60;;;15.60;;
13026;SDS011;6580;42.680;23.324;2022-12-29T03:33:16;21.33;;;16.07;;
13026;SDS011;6580;42.680;23.324;2022-12-29T03:35:46;22.67;;;15.80;;
13026;SDS011;6580;42.680;23.324;2022-12-29T03:38:17;18.00;;;15.53;;
13026;SDS011;6580;42.680;23.324;2022-12-29T03:40:49;19.40;;;15.77;;
13026;SDS011;6580;42.680;23.324;2022-12-29T03:43:18;19.03;;;15.23;;
13026;SDS011;6580;42.680;23.324;2022-12-29T03:45:46;18.90;;;16.40;;
13026;SDS011;6580;42.680;23.324;2022-12-29T03:48:16;21.33;;;16.87;;
13026;SDS011;6580;42.680;23.324;2022-12-29T03:50:44;19.17;;;15.63;;
13026;SDS011;6580;42.680;23.324;2022-12-29T03:53:11;18.03;;;16.10;;
13026;SDS011;6580;42.680;23.324;2022-12-29T03:55:40;18.60;;;15.83;;
13026;SDS011;6580;42.680;23.324;2022-12-29T03:58:07;21.40;;;16.77;;
13026;SDS011;6580;42.680;23.324;2022-12-29T04:00:34;18.27;;;15.63;;
13026;SDS011;6580;42.680;23.324;2022-12-29T04:03:02;18.10;;;15.50;;
13026;SDS011;6580;42.680;23.324;2022-12-29T04:05:31;21.53;;;16.97;;
13026;SDS011;6580;42.680;23.324;2022-12-29T04:07:58;22.17;;;17.67;;
13026;SDS011;6580;42.680;23.324;2022-12-29T04:10:26;19.90;;;17.00;;
13026;SDS011;6580;42.680;23.324;2022-12-29T04:12:54;23.50;;;18.60;;
13026;SDS011;6580;42.680;23.324;2022-12-29T04:15:20;23.73;;;18.83;;
13026;SDS011;6580;42.680;23.324;2022-12-29T04:17:51;24.00;;;19.23;;
13026;SDS011;6580;42.680;23.324;2022-12-29T04:20:18;21.47;;;18.63;;
13026;SDS011;6580;42.680;23.324;2022-12-29T04:23:01;20.30;;;16.77;;
13026;SDS011;6580;42.680;23.324;2022-12-29T04:25:29;19.77;;;16.23;;
13026;SDS011;6580;42.680;23.324;2022-12-29T04:27:56;22.83;;;16.73;;
13026;SDS011;6580;42.680;23.324;2022-12-29T04:30:26;22.43;;;16.07;;
13026;SDS011;6580;42.680;23.324;2022-12-29T04:32:53;22.07;;;16.10;;
13026;SDS011;6580;42.680;23.324;2022-12-29T04:35:19;22.47;;;17.47;;
13026;SDS011;6580;42.680;23.324;2022-12-29T04:37:47;20.43;;;16.97;;
13026;SDS011;6580;42.680;23.324;2022-12-29T04:40:15;24.17;;;18.47;;
13026;SDS011;6580;42.680;23.324;2022-12-29T04:42:42;22.57;;;17.77;;
13026;SDS011;6580;42.680;23.324;2022-12-29T04:45:09;21.33;;;18.13;;
13026;SDS011;6580;42.680;23.324;2022-12-29T04:47:39;21.23;;;16.97;;
13026;SDS011;6580;42.680;23.324;2022-12-29T04:50:07;24.03;;;17.43;;
13026;SDS011;6580;42.680;23.324;2022-12-29T04:52:35;25.13;;;18.73;;
13026;SDS011;6580;42.680;23.324;2022-12-29T04:55:05;24.37;;;18.23;;
13026;SDS011;6580;42.680;23.324;2022-12-29T04:57:34;24.47;;;16.50;;
13026;SDS011;6580;42.680;23.324;2022-12-29T05:00:01;21.60;;;17.93;;
13026;SDS011;6580;42.680;23.324;2022-12-29T05:02:29;20.97;;;16.90;;
13026;SDS011;6580;42.680;23.324;2022-12-29T05:04:55;24.40;;;18.03;;
13026;SDS011;6580;42.680;23.324;2022-12-29T05:07:22;26.17;;;18.23;;
13026;SDS011;6580;42.680;23.324;2022-12-29T05:09:51;23.73;;;17.70;;
13026;SDS011;6580;42.680;23.324;2022-12-29T05:12:22;21.43;;;16.80;;
13026;SDS011;6580;42.680;23.324;2022-12-29T05:14:51;23.03;;;17.53;;
13026;SDS011;6580;42.680;23.324;2022-12-29T05:20:43;21.17;;;17.47;;
13026;SDS011;6580;42.680;23.324;2022-12-29T05:23:11;24.53;;;17.23;;
13026;SDS011;6580;42.680;23.324;2022-12-29T05:25:37;22.37;;;17.70;;
13026;SDS011;6580;42.680;23.324;2022-12-29T05:28:04;26.37;;;19.20;;
13026;SDS011;6580;42.680;23.324;2022-12-29T05:30:33;27.23;;;18.27;;
13026;SDS011;6580;42.680;23.324;2022-12-29T05:33:00;23.03;;;18.47;;
13026;SDS011;6580;42.680;23.324;2022-12-29T05:35:29;22.77;;;17.43;;
13026;SDS011;6580;42.680;23.324;2022-12-29T05:37:55;23.17;;;17.67;;
13026;SDS011;6580;42.680;23.324;2022-12-29T05:40:22;25.10;;;17.60;;
13026;SDS011;6580;42.680;23.324;2022-12-29T05:42:49;23.37;;;18.30;;
13026;SDS011;6580;42.680;23.324;2022-12-29T05:45:17;23.23;;;17.67;;
13026;SDS011;6580;42.680;23.324;2022-12-29T05:47:45;26.77;;;18.80;;
13026;SDS011;6580;42.680;23.324;2022-12-29T05:50:13;30.20;;;20.30;;
13026;SDS011;6580;42.680;23.324;2022-12-29T05:52:42;24.97;;;21.70;;
13026;SDS011;6580;42.680;23.324;2022-12-29T05:55:10;23.40;;;19.47;;
13026;SDS011;6580;42.680;23.324;2022-12-29T05:57:37;23.90;;;19.17;;
13026;SDS011;6580;42.680;23.324;2022-12-29T06:00:05;23.97;;;19.37;;
13026;SDS011;6580;42.680;23.324;2022-12-29T06:02:32;25.00;;;18.00;;
13026;SDS011;6580;42.680;23.324;2022-12-29T06:05:00;21.77;;;18.33;;
13026;SDS011;6580;42.680;23.324;2022-12-29T06:07:27;21.93;;;18.00;;
13026;SDS011;6580;42.680;23.324;2022-12-29T06:09:54;22.60;;;18.13;;
13026;SDS011;6580;42.680;23.324;2022-12-29T06:12:21;22.57;;;18.97;;
13026;SDS011;6580;42.680;23.324;2022-12-29T06:14:48;27.53;;;20.67;;
13026;SDS011;6580;42.680;23.324;2022-12-29T06:17:14;25.80;;;21.83;;
13026;SDS011;6580;42.680;23.324;2022-12-29T06:19:41;27.63;;;21.53;;
13026;SDS011;6580;42.680;23.324;2022-12-29T06:22:10;26.10;;;21.23;;
13026;SDS011;6580;42.680;23.324;2022-12-29T06:24:38;26.00;;;20.83;;
13026;SDS011;6580;42.680;23.324;2022-12-29T06:27:05;28.60;;;22.20;;
13026;SDS011;6580;42.680;23.324;2022-12-29T06:29:32;25.33;;;22.47;;
13026;SDS011;6580;42.680;23.324;2022-12-29T06:32:02;28.57;;;22.30;;
13026;SDS011;6580;42.680;23.324;2022-12-29T06:34:29;27.80;;;22.47;;
13026;SDS011;6580;42.680;23.324;2022-12-29T06:36:56;28.27;;;23.40;;
13026;SDS011;6580;42.680;23.324;2022-12-29T06:39:24;29.50;;;24.03;;
13026;SDS011;6580;42.680;23.324;2022-12-29T06:41:53;27.27;;;24.20;;
13026;SDS011;6580;42.680;23.324;2022-12-29T06:44:21;30.23;;;23.27;;
13026;SDS011;6580;42.680;23.324;2022-12-29T06:46:48;32.90;;;24.70;;
13026;SDS011;6580;42.680;23.324;2022-12-29T06:49:15;32.70;;;25.27;;
13026;SDS011;6580;42.680;23.324;2022-12-29T06:51:42;29.60;;;23.20;;
13026;SDS011;6580;42.680;23.324;2022-12-29T06:54:08;25.57;;;21.87;;
13026;SDS011;6580;42.680;23.324;2022-12-29T06:56:38;28.20;;;23.20;;
13026;SDS011;6580;42.680;23.324;2022-12-29T06:59:06;27.07;;;23.10;;
13026;SDS011;6580;42.680;23.324;2022-12-29T07:01:33;27.33;;;23.53;;
13026;SDS011;6580;42.680;23.324;2022-12-29T07:04:01;32.57;;;24.97;;
13026;SDS011;6580;42.680;23.324;2022-12-29T07:06:28;31.37;;;24.93;;
13026;SDS011;6580;42.680;23.324;2022-12-29T07:08:55;31.67;;;26.17;;
13026;SDS011;6580;42.680;23.324;2022-12-29T07:11:22;29.97;;;25.93;;
13026;SDS011;6580;42.680;23.324;2022-12-29T07:13:52;33.17;;;27.03;;
13026;SDS011;6580;42.680;23.324;2022-12-29T07:16:20;32.50;;;24.67;;
13026;SDS011;6580;42.680;23.324;2022-12-29T07:18:48;31.63;;;24.60;;
13026;SDS011;6580;42.680;23.324;2022-12-29T07:21:15;30.27;;;22.93;;
13026;SDS011;6580;42.680;23.324;2022-12-29T07:23:42;29.23;;;22.20;;
13026;SDS011;6580;42.680;23.324;2022-12-29T07:26:11;27.77;;;22.63;;
13026;SDS011;6580;42.680;23.324;2022-12-29T07:28:42;23.87;;;17.67;;
13026;SDS011;6580;42.680;23.324;2022-12-29T07:31:14;21.80;;;18.00;;
13026;SDS011;6580;42.680;23.324;2022-12-29T07:33:42;26.53;;;18.23;;
13026;SDS011;6580;42.680;23.324;2022-12-29T07:36:10;26.60;;;19.17;;
13026;SDS011;6580;42.680;23.324;2022-12-29T07:38:37;24.67;;;20.60;;
13026;SDS011;6580;42.680;23.324;2022-12-29T07:41:05;26.40;;;19.80;;
13026;SDS011;6580;42.680;23.324;2022-12-29T07:43:32;22.77;;;19.03;;
13026;SDS011;6580;42.680;23.324;2022-12-29T07:46:00;26.03;;;20.53;;
13026;SDS011;6580;42.680;23.324;2022-12-29T07:48:29;22.83;;;18.83;;
13026;SDS011;6580;42.680;23.324;2022-12-29T07:51:01;23.37;;;18.97;;
13026;SDS011;6580;42.680;23.324;2022-12-29T07:53:28;23.47;;;19.20;;
13026;SDS011;6580;42.680;23.324;2022-12-29T07:55:54;24.43;;;19.30;;
13026;SDS011;6580;42.680;23.324;2022-12-29T07:58:23;24.37;;;19.17;;
13026;SDS011;6580;42.680;23.324;2022-12-29T08:00:54;24.83;;;19.37;;
13026;SDS011;6580;42.680;23.324;2022-12-29T08:03:21;24.03;;;19.43;;
13026;SDS011;6580;42.680;23.324;2022-12-29T08:05:56;23.83;;;20.50;;
13026;SDS011;6580;42.680;23.324;2022-12-29T08:08:23;21.47;;;18.90;;
13026;SDS011;6580;42.680;23.324;2022-12-29T08:10:50;22.87;;;19.90;;
13026;SDS011;6580;42.680;23.324;2022-12-29T08:13:17;22.43;;;18.77;;
13026;SDS011;6580;42.680;23.324;2022-12-29T08:15:44;24.63;;;19.40;;
13026;SDS011;6580;42.680;23.324;2022-12-29T08:18:11;24.30;;;18.80;;
13026;SDS011;6580;42.680;23.324;2022-12-29T08:20:37;25.47;;;20.47;;
13026;SDS011;6580;42.680;23.324;2022-12-29T08:23:06;22.03;;;18.80;;
13026;SDS011;6580;42.680;23.324;2022-12-29T08:25:32;21.93;;;18.70;;
13026;SDS011;6580;42.680;23.324;2022-12-29T08:28:00;23.43;;;19.90;;
13026;SDS011;6580;42.680;23.324;2022-12-29T08:30:27;23.77;;;19.87;;
13026;SDS011;6580;42.680;23.324;2022-12-29T08:32:54;23.67;;;20.40;;
13026;SDS011;6580;42.680;23.324;2022-12-29T08:35:23;22.13;;;18.50;;
13026;SDS011;6580;42.680;23.324;2022-12-29T08:37:50;23.63;;;19.40;;
13026;SDS011;6580;42.680;23.324;2022-12-29T08:40:19;24.47;;;19.00;;
13026;SDS011;6580;42.680;23.324;2022-12-29T08:42:47;28.67;;;20.43;;
13026;SDS011;6580;42.680;23.324;2022-12-29T08:45:14;24.40;;;19.70;;
13026;SDS011;6580;42.680;23.324;2022-12-29T08:47:41;26.33;;;21.00;;
13026;SDS011;6580;42.680;23.324;2022-12-29T08:50:07;22.33;;;19.40;;
13026;SDS011;6580;42.680;23.324;2022-12-29T08:52:34;24.87;;;21.03;;
13026;SDS011;6580;42.680;23.324;2022-12-29T08:55:01;24.30;;;19.07;;
13026;SDS011;6580;42.680;23.324;2022-12-29T08:57:31;21.83;;;18.53;;
13026;SDS011;6580;42.680;23.324;2022-12-29T08:59:58;23.20;;;18.63;;
13026;SDS011;6580;42.680;23.324;2022-12-29T09:02:25;23.23;;;19.77;;
13026;SDS011;6580;42.680;23.324;2022-12-29T09:04:53;25.97;;;20.47;;
13026;SDS011;6580;42.680;23.324;2022-12-29T09:07:20;25.23;;;20.27;;
13026;SDS011;6580;42.680;23.324;2022-12-29T09:09:47;23.70;;;20.23;;
13026;SDS011;6580;42.680;23.324;2022-12-29T09:12:15;24.53;;;19.43;;
13026;SDS011;6580;42.680;23.324;2022-12-29T09:14:44;23.57;;;20.07;;
13026;SDS011;6580;42.680;23.324;2022-12-29T09:17:12;29.63;;;26.43;;
13026;SDS011;6580;42.680;23.324;2022-12-29T09:19:56;30.60;;;21.80;;
13026;SDS011;6580;42.680;23.324;2022-12-29T09:22:25;26.53;;;20.87;;
13026;SDS011;6580;42.680;23.324;2022-12-29T09:24:55;23.80;;;20.53;;
13026;SDS011;6580;42.680;23.324;2022-12-29T09:27:24;23.97;;;20.93;;
13026;SDS011;6580;42.680;23.324;2022-12-29T09:29:52;24.53;;;20.70;;
13026;SDS011;6580;42.680;23.324;2022-12-29T09:32:19;30.00;;;22.77;;
13026;SDS011;6580;42.680;23.324;2022-12-29T09:34:46;26.13;;;21.83;;
13026;SDS011;6580;42.680;23.324;2022-12-29T09:37:15;26.13;;;21.90;;
13026;SDS011;6580;42.680;23.324;2022-12-29T09:39:42;26.20;;;21.00;;
13026;SDS011;6580;42.680;23.324;2022-12-29T09:42:11;28.60;;;24.73;;
13026;SDS011;6580;42.680;23.324;2022-12-29T09:44:48;27.27;;;22.80;;
13026;SDS011;6580;42.680;23.324;2022-12-29T09:47:22;24.83;;;21.53;;
13026;SDS011;6580;42.680;23.324;2022-12-29T09:49:52;24.33;;;21.13;;
13026;SDS011;6580;42.680;23.324;2022-12-29T09:52:23;25.03;;;22.37;;
13026;SDS011;6580;42.680;23.324;2022-12-29T09:54:55;26.37;;;21.03;;
13026;SDS011;6580;42.680;23.324;2022-12-29T09:57:25;23.57;;;20.60;;
13026;SDS011;6580;42.680;23.324;2022-12-29T09:59:58;24.00;;;21.07;;
13026;SDS011;6580;42.680;23.324;2022-12-29T10:02:40;24.80;;;21.53;;
13026;SDS011;6580;42.680;23.324;2022-12-29T10:05:18;25.37;;;21.03;;
13026;SDS011;6580;42.680;23.324;2022-12-29T10:07:55;23.27;;;20.07;;
13026;SDS011;6580;42.680;23.324;2022-12-29T10:10:34;25.20;;;22.50;;
13026;SDS011;6580;42.680;23.324;2022-12-29T10:13:18;29.47;;;23.93;;
13026;SDS011;6580;42.680;23.324;2022-12-29T10:15:58;34.37;;;26.47;;
13026;SDS011;6580;42.680;23.324;2022-12-29T10:21:30;26.33;;;21.17;;
13026;SDS011;6580;42.680;23.324;2022-12-29T10:24:07;23.93;;;19.30;;
13026;SDS011;6580;42.680;23.324;2022-12-29T10:26:39;24.03;;;20.67;;
13026;SDS011;6580;42.680;23.324;2022-12-29T10:29:14;23.17;;;19.60;;
13026;SDS011;6580;42.680;23.324;2022-12-29T10:31:56;24.40;;;19.93;;
13026;SDS011;6580;42.680;23.324;2022-12-29T10:34:27;24.87;;;20.77;;
13026;SDS011;6580;42.680;23.324;2022-12-29T10:37:00;38.23;;;32.23;;
13026;SDS011;6580;42.680;23.324;2022-12-29T10:39:32;28.97;;;24.00;;
13026;SDS011;6580;42.680;23.324;2022-12-29T10:42:04;22.40;;;19.87;;
13026;SDS011;6580;42.680;23.324;2022-12-29T10:44:37;25.77;;;20.23;;
13026;SDS011;6580;42.680;23.324;2022-12-29T10:47:07;22.93;;;19.27;;
13026;SDS011;6580;42.680;23.324;2022-12-29T10:49:42;22.30;;;18.00;;
13026;SDS011;6580;42.680;23.324;2022-12-29T10:52:13;19.87;;;17.30;;
13026;SDS011;6580;42.680;23.324;2022-12-29T10:54:46;20.57;;;18.37;;
13026;SDS011;6580;42.680;23.324;2022-12-29T10:57:20;20.57;;;18.13;;
13026;SDS011;6580;42.680;23.324;2022-12-29T10:59:52;20.13;;;18.03;;
13026;SDS011;6580;42.680;23.324;2022-12-29T11:05:19;20.80;;;18.57;;
13026;SDS011;6580;42.680;23.324;2022-12-29T11:07:54;21.50;;;18.97;;
13026;SDS011;6580;42.680;23.324;2022-12-29T11:10:29;21.33;;;19.03;;
13026;SDS011;6580;42.680;23.324;2022-12-29T11:13:03;20.60;;;18.50;;
13026;SDS011;6580;42.680;23.324;2022-12-29T11:15:40;22.67;;;19.33;;
13026;SDS011;6580;42.680;23.324;2022-12-29T11:21:02;20.60;;;18.37;;
13026;SDS011;6580;42.680;23.324;2022-12-29T11:23:31;21.33;;;18.40;;
13026;SDS011;6580;42.680;23.324;2022-12-29T11:26:07;22.83;;;19.07;;
13026;SDS011;6580;42.680;23.324;2022-12-29T11:28:43;21.67;;;18.57;;
13026;SDS011;6580;42.680;23.324;2022-12-29T11:31:17;21.00;;;18.77;;
13026;SDS011;6580;42.680;23.324;2022-12-29T11:33:46;20.73;;;18.60;;
13026;SDS011;6580;42.680;23.324;2022-12-29T11:36:17;20.30;;;18.17;;
13026;SDS011;6580;42.680;23.324;2022-12-29T11:38:50;20.57;;;18.37;;
13026;SDS011;6580;42.680;23.324;2022-12-29T11:41:20;26.17;;;23.33;;
13026;SDS011;6580;42.680;23.324;2022-12-29T11:43:50;21.70;;;19.40;;
13026;SDS011;6580;42.680;23.324;2022-12-29T11:46:24;21.47;;;19.17;;
13026;SDS011;6580;42.680;23.324;2022-12-29T11:48:55;20.53;;;18.17;;
13026;SDS011;6580;42.680;23.324;2022-12-29T11:51:26;22.33;;;18.50;;
13026;SDS011;6580;42.680;23.324;2022-12-29T11:53:56;23.63;;;16.87;;
13026;SDS011;6580;42.680;23.324;2022-12-29T11:56:35;19.50;;;17.60;;
13026;SDS011;6580;42.680;23.324;2022-12-29T12:02:19;18.67;;;16.67;;
13026;SDS011;6580;42.680;23.324;2022-12-29T12:04:58;18.53;;;16.60;;
13026;SDS011;6580;42.680;23.324;2022-12-29T12:07:34;17.93;;;16.10;;
13026;SDS011;6580;42.680;23.324;2022-12-29T12:10:11;23.47;;;20.67;;
13026;SDS011;6580;42.680;23.324;2022-12-29T12:12:44;17.50;;;15.73;;
13026;SDS011;6580;42.680;23.324;2022-12-29T12:15:19;17.53;;;15.73;;
13026;SDS011;6580;42.680;23.324;2022-12-29T12:17:52;18.20;;;16.17;;
13026;SDS011;6580;42.680;23.324;2022-12-29T12:20:27;20.13;;;16.83;;
13026;SDS011;6580;42.680;23.324;2022-12-29T12:23:10;18.70;;;16.10;;
13026;SDS011;6580;42.680;23.324;2022-12-29T12:25:50;18.03;;;15.73;;
13026;SDS011;6580;42.680;23.324;2022-12-29T12:28:26;19.97;;;16.43;;
13026;SDS011;6580;42.680;23.324;2022-12-29T12:31:05;18.03;;;16.13;;
13026;SDS011;6580;42.680;23.324;2022-12-29T12:33:41;19.37;;;17.03;;
13026;SDS011;6580;42.680;23.324;2022-12-29T12:36:20;16.70;;;14.93;;
13026;SDS011;6580;42.680;23.324;2022-12-29T12:38:57;29.63;;;25.00;;
13026;SDS011;6580;42.680;23.324;2022-12-29T12:41:35;20.13;;;17.10;;
13026;SDS011;6580;42.680;23.324;2022-12-29T12:44:17;20.27;;;15.80;;
13026;SDS011;6580;42.680;23.324;2022-12-29T12:52:39;20.83;;;18.57;;
13026;SDS011;6580;42.680;23.324;2022-12-29T12:55:18;20.77;;;17.87;;
13026;SDS011;6580;42.680;23.324;2022-12-29T12:58:03;19.07;;;16.93;;
13026;SDS011;6580;42.680;23.324;2022-12-29T13:00:40;21.13;;;16.97;;
13026;SDS011;6580;42.680;23.324;2022-12-29T13:03:21;19.27;;;17.00;;
13026;SDS011;6580;42.680;23.324;2022-12-29T13:06:12;19.77;;;16.50;;
13026;SDS011;6580;42.680;23.324;2022-12-29T13:09:02;21.63;;;19.33;;
13026;SDS011;6580;42.680;23.324;2022-12-29T13:11:46;19.60;;;17.50;;
13026;SDS011;6580;42.680;23.324;2022-12-29T13:14:25;19.20;;;17.10;;
13026;SDS011;6580;42.680;23.324;2022-12-29T13:17:00;20.33;;;17.60;;
13026;SDS011;6580;42.680;23.324;2022-12-29T13:19:33;18.77;;;16.43;;
13026;SDS011;6580;42.680;23.324;2022-12-29T13:22:09;20.10;;;17.50;;
13026;SDS011;6580;42.680;23.324;2022-12-29T13:24:45;19.47;;;16.97;;
13026;SDS011;6580;42.680;23.324;2022-12-29T13:27:21;20.37;;;16.80;;
13026;SDS011;6580;42.680;23.324;2022-12-29T13:29:57;21.03;;;16.30;;
13026;SDS011;6580;42.680;23.324;2022-12-29T13:32:32;19.50;;;16.60;;
13026;SDS011;6580;42.680;23.324;2022-12-29T13:35:13;20.37;;;16.40;;
13026;SDS011;6580;42.680;23.324;2022-12-29T13:37:52;17.80;;;15.93;;
13026;SDS011;6580;42.680;23.324;2022-12-29T13:40:24;21.10;;;16.83;;
13026;SDS011;6580;42.680;23.324;2022-12-29T13:42:55;22.07;;;16.83;;
13026;SDS011;6580;42.680;23.324;2022-12-29T13:45:24;22.53;;;17.53;;
13026;SDS011;6580;42.680;23.324;2022-12-29T13:47:53;21.03;;;17.63;;
13026;SDS011;6580;42.680;23.324;2022-12-29T13:50:24;21.30;;;17.23;;
13026;SDS011;6580;42.680;23.324;2022-12-29T13:52:56;22.17;;;17.50;;
13026;SDS011;6580;42.680;23.324;2022-12-29T13:55:39;22.07;;;17.10;;
13026;SDS011;6580;42.680;23.324;2022-12-29T13:58:12;21.53;;;18.93;;
13026;SDS011;6580;42.680;23.324;2022-12-29T14:00:53;19.47;;;17.27;;
13026;SDS011;6580;42.680;23.324;2022-12-29T14:03:32;22.03;;;18.50;;
13026;SDS011;6580;42.680;23.324;2022-12-29T14:06:20;21.67;;;18.13;;
13026;SDS011;6580;42.680;23.324;2022-12-29T14:08:49;19.63;;;17.53;;
13026;SDS011;6580;42.680;23.324;2022-12-29T14:11:21;21.33;;;18.50;;
13026;SDS011;6580;42.680;23.324;2022-12-29T14:13:52;22.77;;;17.70;;
13026;SDS011;6580;42.680;23.324;2022-12-29T14:16:26;21.80;;;17.67;;
13026;SDS011;6580;42.680;23.324;2022-12-29T14:18:56;21.60;;;17.77;;
13026;SDS011;6580;42.680;23.324;2022-12-29T14:21:30;23.00;;;18.10;;
13026;SDS011;6580;42.680;23.324;2022-12-29T14:30:09;21.80;;;17.57;;
13026;SDS011;6580;42.680;23.324;2022-12-29T14:33:15;20.00;;;17.67;;
13026;SDS011;6580;42.680;23.324;2022-12-29T14:35:44;21.90;;;17.90;;
13026;SDS011;6580;42.680;23.324;2022-12-29T14:38:22;20.90;;;18.47;;
13026;SDS011;6580;42.680;23.324;2022-12-29T14:40:51;22.50;;;19.17;;
13026;SDS011;6580;42.680;23.324;2022-12-29T14:43:41;22.87;;;18.80;;
13026;SDS011;6580;42.680;23.324;2022-12-29T14:46:21;22.00;;;18.03;;
13026;SDS011;6580;42.680;23.324;2022-12-29T14:49:08;24.77;;;18.60;;
13026;SDS011;6580;42.680;23.324;2022-12-29T14:51:42;24.60;;;19.07;;
13026;SDS011;6580;42.680;23.324;2022-12-29T14:57:12;24.57;;;18.47;;
13026;SDS011;6580;42.680;23.324;2022-12-29T14:59:46;26.77;;;20.47;;
13026;SDS011;6580;42.680;23.324;2022-12-29T15:02:16;24.80;;;21.30;;
13026;SDS011;6580;42.680;23.324;2022-12-29T15:04:47;26.20;;;21.03;;
13026;SDS011;6580;42.680;23.324;2022-12-29T15:07:15;26.60;;;20.17;;
13026;SDS011;6580;42.680;23.324;2022-12-29T15:09:45;25.30;;;20.07;;
13026;SDS011;6580;42.680;23.324;2022-12-29T15:12:19;26.83;;;20.70;;
13026;SDS011;6580;42.680;23.324;2022-12-29T15:14:52;24.67;;;20.67;;
13026;SDS011;6580;42.680;23.324;2022-12-29T15:17:25;27.27;;;22.60;;
13026;SDS011;6580;42.680;23.324;2022-12-29T15:19:54;28.03;;;22.87;;
13026;SDS011;6580;42.680;23.324;2022-12-29T15:22:21;26.40;;;21.00;;
13026;SDS011;6580;42.680;23.324;2022-12-29T15:24:49;32.97;;;26.40;;